createdAt,value
2019-03-10T00:00:52.014Z,5.05
2019-03-10T00:03:25.313Z,5.04
2019-03-10T00:05:57.006Z,5.06
2019-03-10T00:08:29.698Z,5.01
2019-03-10T00:11:01.546Z,5.02
2019-03-10T00:13:33.221Z,5.00
2019-03-10T00:16:04.974Z,4.98
2019-03-10T00:18:36.700Z,4.99
2019-03-10T00:21:08.476Z,4.94
2019-03-10T00:23:40.102Z,4.90
2019-03-10T00:26:11.692Z,4.84
2019-03-10T00:28:43.345Z,4.82
2019-03-10T00:31:14.969Z,4.83
2019-03-10T00:33:46.602Z,4.82
2019-03-10T00:36:18.182Z,4.84
2019-03-10T00:39:05.985Z,4.84
2019-03-10T00:42:21.320Z,4.83
2019-03-10T00:45:16.374Z,4.86
2019-03-10T00:48:24.782Z,4.87
2019-03-10T00:51:24.694Z,4.88
2019-03-10T00:53:56.276Z,4.86
2019-03-10T00:56:27.864Z,4.90
2019-03-10T00:58:59.472Z,4.92
2019-03-10T01:01:31.140Z,4.90
2019-03-10T01:04:02.815Z,4.87
2019-03-10T01:06:34.569Z,4.89
2019-03-10T01:09:06.271Z,4.93
2019-03-10T01:11:39.054Z,4.92
2019-03-10T01:14:10.649Z,4.95
2019-03-10T01:16:42.254Z,4.93
2019-03-10T01:19:13.959Z,4.90
2019-03-10T01:21:45.739Z,4.86
2019-03-10T01:24:17.621Z,4.85
2019-03-10T01:26:49.212Z,4.87
2019-03-10T01:29:20.895Z,4.87
2019-03-10T01:32:36.865Z,4.86
2019-03-10T01:35:14.225Z,4.91
2019-03-10T01:37:45.963Z,4.94
2019-03-10T01:40:17.738Z,4.93
2019-03-10T01:42:49.325Z,4.97
2019-03-10T01:45:20.925Z,4.95
2019-03-10T01:47:52.513Z,4.91
2019-03-10T01:50:24.103Z,4.92
2019-03-10T01:52:55.687Z,4.89
2019-03-10T01:55:27.270Z,4.89
2019-03-10T01:57:58.947Z,4.91
2019-03-10T02:00:30.547Z,4.86
2019-03-10T02:03:02.190Z,4.81
2019-03-10T02:05:33.845Z,4.77
2019-03-10T02:08:05.503Z,4.75
2019-03-10T02:10:37.157Z,4.73
2019-03-10T02:13:09.815Z,4.72
2019-03-10T02:15:41.455Z,4.73
2019-03-10T02:18:13.105Z,4.73
2019-03-10T02:20:44.876Z,4.68
2019-03-10T02:23:16.558Z,4.69
2019-03-10T02:25:48.216Z,4.64
2019-03-10T02:28:19.824Z,4.61
2019-03-10T02:30:51.422Z,4.58
2019-03-10T02:33:23.321Z,4.57
2019-03-10T02:35:54.907Z,4.56
2019-03-10T02:38:26.528Z,4.57
2019-03-10T02:40:58.185Z,4.54
2019-03-10T02:43:29.789Z,4.51
2019-03-10T02:46:01.465Z,4.53
2019-03-10T02:48:33.986Z,4.41
2019-03-10T02:51:05.574Z,4.42
2019-03-10T02:53:37.249Z,4.30
2019-03-10T02:56:08.850Z,4.26
2019-03-10T02:58:40.467Z,4.24
2019-03-10T03:01:12.051Z,4.22
2019-03-10T03:03:43.918Z,4.11
2019-03-10T03:06:15.505Z,4.07
2019-03-10T03:08:47.108Z,4.08
2019-03-10T03:11:18.825Z,4.09
2019-03-10T03:13:50.418Z,4.09
2019-03-10T03:16:22.019Z,4.09
2019-03-10T03:18:53.793Z,4.18
2019-03-10T03:21:25.430Z,4.22
2019-03-10T03:23:57.057Z,4.21
2019-03-10T03:26:28.648Z,4.24
2019-03-10T03:29:00.247Z,4.24
2019-03-10T03:31:31.836Z,4.26
2019-03-10T03:34:03.468Z,4.39
2019-03-10T03:36:37.032Z,4.36
2019-03-10T03:39:26.544Z,4.33
2019-03-10T03:41:58.146Z,4.28
2019-03-10T03:44:29.738Z,4.25
2019-03-10T03:47:01.329Z,4.23
2019-03-10T03:49:32.997Z,4.26
2019-03-10T03:52:04.634Z,4.26
2019-03-10T03:54:36.270Z,4.28
2019-03-10T03:57:07.862Z,4.26
2019-03-10T03:59:39.555Z,4.27
2019-03-10T04:02:36.221Z,4.27
2019-03-10T04:05:08.338Z,4.26
2019-03-10T04:07:39.933Z,4.25
2019-03-10T04:10:11.506Z,4.25
2019-03-10T04:12:43.097Z,4.18
2019-03-10T04:15:14.972Z,4.19
2019-03-10T04:17:46.554Z,4.19
2019-03-10T04:20:18.207Z,4.19
2019-03-10T04:22:49.783Z,4.16
2019-03-10T04:25:21.386Z,4.13
2019-03-10T04:27:52.958Z,4.15
2019-03-10T04:30:24.631Z,4.13
2019-03-10T04:32:56.293Z,4.07
2019-03-10T04:35:27.902Z,4.01
2019-03-10T04:37:59.466Z,4.00
2019-03-10T04:40:31.211Z,3.95
2019-03-10T04:43:02.892Z,3.88
2019-03-10T04:45:34.472Z,3.85
2019-03-10T04:48:06.064Z,3.77
2019-03-10T04:50:37.645Z,3.74
2019-03-10T04:53:09.217Z,3.76
2019-03-10T04:56:02.476Z,3.71
2019-03-10T04:58:35.638Z,3.71
2019-03-10T05:01:07.239Z,3.69
2019-03-10T05:03:38.912Z,3.67
2019-03-10T05:06:10.578Z,3.70
2019-03-10T05:08:42.162Z,3.69
2019-03-10T05:11:13.911Z,3.71
2019-03-10T05:13:46.458Z,3.72
2019-03-10T05:16:18.109Z,3.72
2019-03-10T05:18:49.781Z,3.71
2019-03-10T05:21:21.382Z,3.68
2019-03-10T05:23:53.104Z,3.66
2019-03-10T05:26:24.677Z,3.70
2019-03-10T05:28:56.417Z,3.67
2019-03-10T05:31:27.994Z,3.56
2019-03-10T05:33:59.659Z,3.59
2019-03-10T05:36:32.195Z,3.66
2019-03-10T05:39:05.634Z,3.59
2019-03-10T05:41:37.293Z,3.64
2019-03-10T05:44:08.870Z,3.70
2019-03-10T05:46:40.438Z,3.72
2019-03-10T05:49:12.049Z,3.76
2019-03-10T05:51:44.008Z,3.77
2019-03-10T05:54:16.703Z,3.79
2019-03-10T05:56:48.296Z,3.85
2019-03-10T05:59:19.869Z,3.89
2019-03-10T06:01:51.466Z,3.90
2019-03-10T06:04:23.042Z,3.99
2019-03-10T06:06:54.629Z,3.97
2019-03-10T06:09:26.219Z,4.03
2019-03-10T06:11:57.817Z,4.06
2019-03-10T06:14:29.485Z,4.07
2019-03-10T06:17:01.097Z,4.08
2019-03-10T06:19:32.748Z,4.14
2019-03-10T06:22:04.337Z,4.17
2019-03-10T06:24:35.936Z,4.21
2019-03-10T06:27:07.629Z,4.29
2019-03-10T06:29:39.222Z,4.33
2019-03-10T06:32:10.842Z,4.42
2019-03-10T06:34:43.404Z,4.50
2019-03-10T06:37:15.014Z,4.53
2019-03-10T06:39:46.614Z,4.69
2019-03-10T06:42:18.217Z,4.76
2019-03-10T06:44:49.807Z,4.84
2019-03-10T06:47:21.411Z,4.92
2019-03-10T06:49:53.031Z,4.92
2019-03-10T06:52:24.631Z,4.94
2019-03-10T06:54:56.205Z,5.05
2019-03-10T06:57:27.818Z,5.03
2019-03-10T06:59:59.406Z,5.12
2019-03-10T07:02:31.007Z,5.12
2019-03-10T07:05:02.660Z,5.07
2019-03-10T07:07:35.315Z,5.16
2019-03-10T07:10:07.748Z,5.23
2019-03-10T07:12:39.411Z,5.32
2019-03-10T07:15:11.595Z,5.29
2019-03-10T07:17:43.264Z,5.34
2019-03-10T07:20:16.589Z,5.45
2019-03-10T07:22:48.191Z,5.41
2019-03-10T07:25:19.849Z,5.48
2019-03-10T07:28:10.447Z,5.44
2019-03-10T07:31:01.003Z,5.52
2019-03-10T07:33:51.582Z,5.60
2019-03-10T07:36:40.955Z,5.62
2019-03-10T07:39:31.534Z,5.69
2019-03-10T07:42:23.758Z,5.74
2019-03-10T07:45:29.253Z,5.75
2019-03-10T07:48:10.196Z,5.73
2019-03-10T07:50:51.061Z,5.73
2019-03-10T07:53:40.188Z,5.88
2019-03-10T07:56:20.385Z,5.95
2019-03-10T07:59:19.731Z,6.05
2019-03-10T08:02:08.943Z,6.08
2019-03-10T08:04:47.606Z,6.12
2019-03-10T08:07:53.005Z,6.11
2019-03-10T08:10:35.936Z,6.09
2019-03-10T08:13:26.540Z,6.15
2019-03-10T08:16:20.268Z,6.17
2019-03-10T08:19:13.799Z,6.30
2019-03-10T08:22:04.379Z,6.46
2019-03-10T08:25:06.788Z,6.60
2019-03-10T08:28:01.566Z,6.69
2019-03-10T08:30:58.255Z,6.73
2019-03-10T08:34:07.499Z,6.79
2019-03-10T08:36:49.294Z,6.87
2019-03-10T08:39:30.307Z,6.98
2019-03-10T08:42:26.686Z,6.95
2019-03-10T08:45:11.205Z,7.06
2019-03-10T08:47:59.382Z,7.08
2019-03-10T08:50:59.085Z,7.13
2019-03-10T08:54:03.026Z,7.16
2019-03-10T08:56:54.631Z,7.11
2019-03-10T09:00:00.697Z,7.21
2019-03-10T09:03:01.139Z,7.26
2019-03-10T09:05:41.474Z,7.25
2019-03-10T09:08:41.060Z,7.32
2019-03-10T09:11:34.747Z,7.40
2019-03-10T09:14:19.906Z,7.53
2019-03-10T09:17:00.174Z,7.84
2019-03-10T09:19:50.106Z,8.04
2019-03-10T09:22:38.126Z,8.21
2019-03-10T09:25:24.247Z,8.42
2019-03-10T09:28:20.941Z,8.58
2019-03-10T09:31:07.630Z,8.59
2019-03-10T09:33:44.811Z,8.95
2019-03-10T09:36:30.270Z,8.90
2019-03-10T09:39:35.955Z,8.79
2019-03-10T09:42:26.647Z,8.80
2019-03-10T09:45:05.208Z,8.52
2019-03-10T09:47:55.698Z,8.76
2019-03-10T09:50:36.202Z,9.18
2019-03-10T09:53:42.352Z,9.18
2019-03-10T09:56:38.878Z,9.20
2019-03-10T09:59:29.476Z,8.98
2019-03-10T10:02:22.757Z,8.98
2019-03-10T10:05:07.133Z,8.76
2019-03-10T10:08:00.944Z,8.64
2019-03-10T10:10:52.869Z,8.60
2019-03-10T10:13:43.473Z,8.58
2019-03-10T10:16:33.071Z,8.46
2019-03-10T10:19:30.003Z,8.43
2019-03-10T10:22:13.454Z,8.52
2019-03-10T10:25:04.270Z,8.61
2019-03-10T10:28:13.511Z,8.62
2019-03-10T10:31:13.997Z,8.61
2019-03-10T10:34:14.228Z,8.54
2019-03-10T10:37:05.234Z,8.53
2019-03-10T10:39:51.619Z,8.44
2019-03-10T10:42:40.768Z,8.55
2019-03-10T10:45:30.382Z,8.53
2019-03-10T10:48:20.750Z,8.75
2019-03-10T10:51:18.270Z,8.98
2019-03-10T10:54:12.362Z,9.11
2019-03-10T10:57:11.952Z,9.16
2019-03-10T11:00:05.599Z,9.06
2019-03-10T11:02:55.512Z,9.01
2019-03-10T11:05:33.063Z,9.20
2019-03-10T11:08:29.610Z,9.30
2019-03-10T11:11:13.184Z,9.21
2019-03-10T11:14:02.481Z,9.36
2019-03-10T11:16:53.185Z,9.49
2019-03-10T11:19:31.837Z,9.48
2019-03-10T11:22:12.320Z,9.50
2019-03-10T11:25:21.242Z,9.54
2019-03-10T11:28:18.370Z,9.60
2019-03-10T11:31:00.176Z,9.72
2019-03-10T11:33:56.705Z,9.91
2019-03-10T11:36:50.614Z,9.94
2019-03-10T11:39:39.186Z,9.71
2019-03-10T11:42:38.817Z,9.82
2019-03-10T11:45:27.938Z,9.88
2019-03-10T11:48:18.632Z,9.85
2019-03-10T11:51:27.260Z,9.67
2019-03-10T11:54:07.087Z,9.66
2019-03-10T11:56:55.378Z,9.64
2019-03-10T11:59:30.867Z,9.63
2019-03-10T12:02:18.625Z,9.56
2019-03-10T12:05:09.343Z,9.50
2019-03-10T12:07:58.066Z,9.60
2019-03-10T12:10:31.008Z,9.66
2019-03-10T12:13:03.382Z,9.65
2019-03-10T12:15:36.663Z,9.62
2019-03-10T12:18:08.669Z,9.52
2019-03-10T12:20:40.967Z,9.60
2019-03-10T12:23:12.989Z,9.62
2019-03-10T12:25:45.844Z,9.59
2019-03-10T12:28:17.685Z,9.63
2019-03-10T12:30:49.351Z,9.64
2019-03-10T12:33:20.945Z,9.66
2019-03-10T12:35:52.642Z,9.65
2019-03-10T12:38:24.244Z,9.57
2019-03-10T12:40:56.825Z,9.75
2019-03-10T12:43:28.667Z,9.80
2019-03-10T12:46:00.287Z,9.80
2019-03-10T12:48:31.968Z,9.85
2019-03-10T12:51:03.588Z,9.84
2019-03-10T12:53:35.252Z,9.84
2019-03-10T12:56:06.880Z,9.97
2019-03-10T12:58:38.537Z,10.01
2019-03-10T13:01:10.160Z,10.02
2019-03-10T13:03:41.853Z,9.74
2019-03-10T13:06:13.586Z,9.72
2019-03-10T13:08:45.708Z,9.68
2019-03-10T13:11:17.414Z,9.43
2019-03-10T13:13:49.064Z,9.36
2019-03-10T13:16:20.694Z,9.29
2019-03-10T13:18:52.284Z,9.22
2019-03-10T13:21:26.000Z,9.11
2019-03-10T13:23:57.209Z,9.08
2019-03-10T13:26:28.797Z,9.06
2019-03-10T13:29:00.407Z,8.97
2019-03-10T13:31:32.114Z,8.97
2019-03-10T13:34:03.700Z,9.01
2019-03-10T13:36:35.326Z,8.79
2019-03-10T13:39:07.752Z,8.61
2019-03-10T13:41:40.943Z,8.49
2019-03-10T13:44:12.571Z,8.32
2019-03-10T13:46:44.319Z,8.27
2019-03-10T13:49:16.044Z,8.13
2019-03-10T13:51:47.786Z,8.16
2019-03-10T13:54:19.699Z,8.21
2019-03-10T13:56:51.296Z,8.26
2019-03-10T13:59:22.880Z,8.23
2019-03-10T14:01:54.516Z,8.25
2019-03-10T14:04:26.113Z,8.27
2019-03-10T14:06:57.740Z,8.22
2019-03-10T14:09:29.342Z,8.09
2019-03-10T14:12:00.965Z,8.05
2019-03-10T14:14:33.541Z,8.08
2019-03-10T14:17:05.168Z,8.17
2019-03-10T14:19:36.771Z,8.10
2019-03-10T14:22:08.455Z,7.92
2019-03-10T14:24:42.815Z,7.85
2019-03-10T14:27:14.442Z,7.85
2019-03-10T14:29:46.049Z,7.88
2019-03-10T14:32:17.793Z,7.94
2019-03-10T14:34:49.446Z,7.92
2019-03-10T14:37:21.057Z,7.88
2019-03-10T14:39:52.742Z,7.83
2019-03-10T14:42:24.340Z,7.89
2019-03-10T14:44:55.947Z,7.83
2019-03-10T14:47:27.572Z,7.74
2019-03-10T14:50:00.389Z,7.62
2019-03-10T14:52:32.280Z,7.64
2019-03-10T14:55:03.912Z,7.48
2019-03-10T14:57:35.575Z,7.43
2019-03-10T15:00:08.940Z,7.36
2019-03-10T15:02:40.607Z,7.32
2019-03-10T15:05:12.346Z,7.30
2019-03-10T15:07:44.159Z,7.15
2019-03-10T15:10:16.166Z,7.13
2019-03-10T15:12:47.814Z,7.26
2019-03-10T15:15:22.847Z,7.31
2019-03-10T15:17:53.865Z,7.30
2019-03-10T15:20:25.525Z,7.22
2019-03-10T15:22:57.287Z,7.35
2019-03-10T15:25:28.976Z,7.32
2019-03-10T15:28:02.710Z,7.26
2019-03-10T15:30:35.983Z,7.30
2019-03-10T15:33:07.887Z,7.18
2019-03-10T15:35:40.778Z,7.27
2019-03-10T15:38:13.365Z,7.37
2019-03-10T15:40:45.209Z,7.36
2019-03-10T15:43:20.006Z,7.41
2019-03-10T15:45:52.132Z,7.42
2019-03-10T15:48:23.800Z,7.47
2019-03-10T15:50:55.611Z,7.47
2019-03-10T15:53:27.782Z,7.59
2019-03-10T15:55:59.811Z,7.67
2019-03-10T15:58:32.410Z,7.73
2019-03-10T16:01:04.962Z,7.72
2019-03-10T16:03:36.876Z,7.72
2019-03-10T16:06:09.013Z,7.60
2019-03-10T16:08:41.356Z,7.43
2019-03-10T16:11:13.123Z,7.39
2019-03-10T16:13:45.378Z,7.32
2019-03-10T16:16:17.087Z,7.40
2019-03-10T16:18:50.969Z,7.33
2019-03-10T16:21:22.559Z,7.33
2019-03-10T16:23:54.755Z,7.32
2019-03-10T16:26:26.453Z,7.29
2019-03-10T16:28:58.162Z,7.31
2019-03-10T16:31:29.760Z,7.31
2019-03-10T16:34:01.440Z,7.39
2019-03-10T16:36:33.044Z,7.46
2019-03-10T16:39:05.049Z,7.53
2019-03-10T16:41:37.999Z,7.60
2019-03-10T16:44:09.657Z,7.63
2019-03-10T16:46:41.453Z,7.65
2019-03-10T16:49:13.104Z,7.58
2019-03-10T16:51:44.695Z,7.54
2019-03-10T16:54:16.476Z,7.52
2019-03-10T16:56:49.317Z,7.46
2019-03-10T16:59:21.002Z,7.29
2019-03-10T17:01:52.824Z,7.32
2019-03-10T17:04:24.465Z,7.31
2019-03-10T17:06:56.012Z,7.21
2019-03-10T17:09:28.875Z,7.16
2019-03-10T17:12:00.500Z,7.09
2019-03-10T17:14:32.320Z,7.07
2019-03-10T17:17:03.937Z,6.99
2019-03-10T17:19:35.731Z,6.95
2019-03-10T17:22:07.341Z,6.98
2019-03-10T17:24:39.042Z,6.93
2019-03-10T17:27:10.644Z,6.86
2019-03-10T17:29:42.827Z,6.79
2019-03-10T17:32:14.525Z,6.70
2019-03-10T17:34:48.780Z,6.63
2019-03-10T17:37:20.765Z,6.53
2019-03-10T17:39:52.437Z,6.55
2019-03-10T17:42:24.059Z,6.51
2019-03-10T17:44:56.391Z,6.47
2019-03-10T17:47:28.372Z,6.50
2019-03-10T17:50:00.489Z,6.53
2019-03-10T17:52:32.221Z,6.46
2019-03-10T17:55:04.022Z,6.41
2019-03-10T17:57:35.692Z,6.37
2019-03-10T18:00:08.144Z,6.50
2019-03-10T18:02:39.817Z,6.46
2019-03-10T18:05:11.438Z,6.43
2019-03-10T18:07:43.059Z,6.47
2019-03-10T18:10:14.693Z,6.51
2019-03-10T18:12:47.756Z,6.53
2019-03-10T18:15:19.495Z,6.62
2019-03-10T18:17:51.087Z,6.73
2019-03-10T18:20:22.712Z,6.73
2019-03-10T18:22:54.396Z,6.70
2019-03-10T18:25:25.995Z,6.71
2019-03-10T18:27:57.672Z,6.50
2019-03-10T18:30:29.369Z,6.44
2019-03-10T18:33:01.029Z,6.43
2019-03-10T18:35:32.727Z,6.28
2019-03-10T18:38:04.386Z,6.22
2019-03-10T18:40:36.161Z,6.22
2019-03-10T18:43:07.816Z,6.22
2019-03-10T18:45:39.491Z,6.24
2019-03-10T18:48:11.173Z,6.33
2019-03-10T18:50:43.289Z,6.45
2019-03-10T18:53:14.967Z,6.45
2019-03-10T18:55:48.451Z,6.45
2019-03-10T18:58:20.768Z,6.43
2019-03-10T19:00:52.432Z,6.48
2019-03-10T19:03:24.153Z,6.43
2019-03-10T19:05:55.829Z,6.41
2019-03-10T19:08:27.446Z,6.36
2019-03-10T19:10:59.506Z,6.42
2019-03-10T19:13:31.195Z,6.43
2019-03-10T19:16:02.809Z,6.45
2019-03-10T19:18:34.478Z,6.41
2019-03-10T19:21:06.137Z,6.45
2019-03-10T19:23:37.927Z,6.47
2019-03-10T19:26:11.315Z,6.60
2019-03-10T19:28:42.967Z,6.56
2019-03-10T19:31:14.680Z,6.55
2019-03-10T19:33:46.639Z,6.63
2019-03-10T19:36:18.313Z,6.70
2019-03-10T19:38:49.991Z,6.69
2019-03-10T19:41:21.670Z,6.70
2019-03-10T19:43:53.446Z,6.67
2019-03-10T19:46:25.157Z,6.74
2019-03-10T19:48:56.809Z,6.69
2019-03-10T19:51:28.417Z,6.61
2019-03-10T19:54:00.086Z,6.62
2019-03-10T19:56:31.968Z,6.63
2019-03-10T19:59:03.651Z,6.66
2019-03-10T20:01:35.333Z,6.56
2019-03-10T20:04:07.006Z,6.47
2019-03-10T20:06:38.677Z,6.52
2019-03-10T20:09:10.491Z,6.55
2019-03-10T20:11:42.590Z,6.50
2019-03-10T20:14:14.259Z,6.50
2019-03-10T20:16:45.927Z,6.43
2019-03-10T20:19:17.600Z,6.34
2019-03-10T20:21:49.519Z,6.36
2019-03-10T20:24:22.616Z,6.35
2019-03-10T20:26:54.302Z,6.21
2019-03-10T20:29:25.981Z,6.19
2019-03-10T20:31:57.705Z,6.08
2019-03-10T20:34:29.382Z,6.09
2019-03-10T20:37:01.054Z,6.05
2019-03-10T20:39:32.703Z,6.01
2019-03-10T20:42:05.419Z,5.99
2019-03-10T20:44:37.366Z,5.98
2019-03-10T20:47:09.058Z,5.96
2019-03-10T20:49:40.709Z,5.92
2019-03-10T20:52:12.389Z,5.84
2019-03-10T20:54:44.060Z,5.78
2019-03-10T20:57:15.912Z,5.59
2019-03-10T20:59:47.805Z,5.57
2019-03-10T21:02:19.715Z,5.41
2019-03-10T21:04:51.379Z,5.32
2019-03-10T21:07:23.073Z,5.28
2019-03-10T21:09:54.680Z,5.12
2019-03-10T21:12:26.370Z,4.98
2019-03-10T21:14:58.035Z,4.92
2019-03-10T21:17:29.719Z,4.64
2019-03-10T21:20:01.401Z,4.67
2019-03-10T21:22:33.084Z,4.55
2019-03-10T21:25:05.226Z,4.34
2019-03-10T21:27:38.460Z,4.32
2019-03-10T21:30:16.061Z,4.06
2019-03-10T21:32:47.825Z,3.90
2019-03-10T21:35:19.718Z,3.96
2019-03-10T21:37:51.322Z,3.95
2019-03-10T21:40:23.685Z,3.75
2019-03-10T21:42:55.293Z,3.63
2019-03-10T21:45:26.908Z,3.52
2019-03-10T21:47:58.588Z,3.49
2019-03-10T21:50:30.270Z,3.43
2019-03-10T21:53:01.939Z,3.55
2019-03-10T21:55:33.587Z,3.48
2019-03-10T21:58:05.574Z,3.31
2019-03-10T22:00:37.220Z,3.43
2019-03-10T22:03:08.896Z,3.30
2019-03-10T22:05:40.789Z,3.13
2019-03-10T22:08:12.496Z,3.14
2019-03-10T22:10:44.276Z,3.08
2019-03-10T22:13:16.125Z,3.02
2019-03-10T22:15:48.860Z,2.95
2019-03-10T22:18:20.615Z,2.88
2019-03-10T22:20:52.268Z,2.80
2019-03-10T22:23:23.930Z,2.65
2019-03-10T22:25:56.558Z,2.45
2019-03-10T22:28:28.205Z,2.45
2019-03-10T22:30:59.864Z,2.37
2019-03-10T22:33:31.446Z,2.19
2019-03-10T22:36:03.032Z,2.12
2019-03-10T22:38:34.670Z,2.03
2019-03-10T22:41:06.264Z,2.06
2019-03-10T22:43:37.976Z,2.01
2019-03-10T22:46:09.620Z,1.87
2019-03-10T22:48:41.692Z,1.83
2019-03-10T22:51:13.338Z,1.77
2019-03-10T22:53:44.967Z,1.76
2019-03-10T22:56:16.929Z,1.76
2019-03-10T22:58:48.537Z,1.69
2019-03-10T23:01:20.192Z,1.72
2019-03-10T23:03:51.849Z,1.61
2019-03-10T23:06:23.504Z,1.65
2019-03-10T23:08:55.114Z,1.57
2019-03-10T23:11:26.713Z,1.63
2019-03-10T23:13:58.319Z,1.59
2019-03-10T23:16:29.962Z,1.49
2019-03-10T23:19:01.576Z,1.55
2019-03-10T23:21:33.239Z,1.59
2019-03-10T23:24:04.855Z,1.57
2019-03-10T23:26:36.536Z,1.50
2019-03-10T23:29:08.270Z,1.54
2019-03-10T23:31:39.923Z,1.63
2019-03-10T23:34:11.686Z,1.59
2019-03-10T23:36:43.332Z,1.64
2019-03-10T23:39:15.043Z,1.71
2019-03-10T23:41:46.929Z,1.75
2019-03-10T23:44:18.847Z,1.82
2019-03-10T23:46:50.722Z,1.84
2019-03-10T23:49:22.653Z,1.94
2019-03-10T23:51:54.260Z,2.02
2019-03-10T23:54:25.847Z,2.07
2019-03-10T23:56:57.459Z,2.16
2019-03-10T23:59:29.066Z,2.11
